createdAt,value
2023-05-02T00:01:21.636Z,5.50
2023-05-02T00:03:48.574Z,4.73
2023-05-02T00:06:15.748Z,5.33
2023-05-02T00:08:42.867Z,5.40
2023-05-02T00:11:09.978Z,4.63
2023-05-02T00:13:37.014Z,5.33
2023-05-02T00:16:04.698Z,5.47
2023-05-02T00:18:31.749Z,5.30
2023-05-02T00:20:58.787Z,5.07
2023-05-02T00:23:25.774Z,5.50
2023-05-02T00:25:53.429Z,6.03
2023-05-02T00:28:20.458Z,5.73
2023-05-02T00:30:47.753Z,5.80
2023-05-02T00:33:15.853Z,5.60
2023-05-02T00:35:42.973Z,5.70
2023-05-02T00:38:10.018Z,6.07
2023-05-02T00:40:47.576Z,5.60
2023-05-02T00:43:15.467Z,5.90
2023-05-02T00:45:46.411Z,5.97
2023-05-02T00:48:13.617Z,7.80
2023-05-02T00:50:43.137Z,8.47
2023-05-02T00:53:10.960Z,8.97
2023-05-02T00:55:38.199Z,8.80
2023-05-02T00:58:16.750Z,8.57
2023-05-02T01:01:03.066Z,7.57
2023-05-02T01:03:46.165Z,7.43
2023-05-02T01:06:47.374Z,8.20
2023-05-02T01:09:49.521Z,8.40
2023-05-02T01:12:33.781Z,11.40
2023-05-02T01:15:05.871Z,10.57
2023-05-02T01:17:34.449Z,8.33
2023-05-02T01:20:07.825Z,7.70
2023-05-02T01:22:35.256Z,8.47
2023-05-02T01:25:16.903Z,7.67
2023-05-02T01:28:01.385Z,7.10
2023-05-02T01:30:30.815Z,7.53
2023-05-02T01:32:59.526Z,7.67
2023-05-02T01:35:27.661Z,7.40
2023-05-02T01:37:57.409Z,7.10
2023-05-02T01:40:26.348Z,7.87
2023-05-02T01:42:54.759Z,7.87
2023-05-02T01:45:23.277Z,8.23
2023-05-02T01:47:51.280Z,9.60
2023-05-02T01:50:23.212Z,11.53
2023-05-02T01:52:52.989Z,11.67
2023-05-02T01:55:20.331Z,10.10
2023-05-02T01:57:48.437Z,9.23
2023-05-02T02:00:18.416Z,9.90
2023-05-02T02:02:47.463Z,11.07
2023-05-02T02:05:15.521Z,10.97
2023-05-02T02:07:43.949Z,10.77
2023-05-02T02:10:11.181Z,11.63
2023-05-02T02:12:52.175Z,11.83
2023-05-02T02:15:25.559Z,12.27
2023-05-02T02:18:10.678Z,11.80
2023-05-02T02:20:38.933Z,11.93
2023-05-02T02:23:08.460Z,12.03
2023-05-02T02:25:37.438Z,12.30
2023-05-02T02:28:04.826Z,13.20
2023-05-02T02:30:32.012Z,12.50
2023-05-02T02:32:59.174Z,12.50
2023-05-02T02:35:50.020Z,12.40
2023-05-02T02:38:33.381Z,13.33
2023-05-02T02:41:16.468Z,14.47
2023-05-02T02:44:04.089Z,15.17
2023-05-02T02:46:56.265Z,15.40
2023-05-02T02:49:23.764Z,15.87
2023-05-02T02:52:27.904Z,17.50
2023-05-02T02:55:06.353Z,16.37
2023-05-02T02:57:43.919Z,17.60
2023-05-02T03:00:20.345Z,18.40
2023-05-02T03:02:47.929Z,19.53
2023-05-02T03:05:15.555Z,20.07
2023-05-02T03:07:42.665Z,21.63
2023-05-02T03:10:09.888Z,20.50
2023-05-02T03:12:39.921Z,21.33
2023-05-02T03:15:23.201Z,20.07
2023-05-02T03:17:50.709Z,20.00
2023-05-02T03:20:17.415Z,20.63
2023-05-02T03:22:44.444Z,20.20
2023-05-02T03:25:12.603Z,20.10
2023-05-02T03:27:43.806Z,19.53
2023-05-02T03:30:12.197Z,20.43
2023-05-02T03:32:39.305Z,18.60
2023-05-02T03:35:06.721Z,22.23
2023-05-02T03:37:38.908Z,17.77
2023-05-02T03:40:06.371Z,17.80
2023-05-02T03:42:39.913Z,16.37
2023-05-02T03:45:10.634Z,17.87
2023-05-02T03:47:37.887Z,15.57
2023-05-02T03:50:05.125Z,14.77
2023-05-02T03:52:33.992Z,15.43
2023-05-02T03:55:01.583Z,15.83
2023-05-02T03:57:32.289Z,17.53
2023-05-02T04:00:00.539Z,16.50
2023-05-02T04:02:38.881Z,15.23
2023-05-02T04:05:09.976Z,15.43
2023-05-02T04:07:38.217Z,16.57
2023-05-02T04:10:07.385Z,16.27
2023-05-02T04:12:39.801Z,16.57
2023-05-02T04:15:06.995Z,15.83
2023-05-02T04:17:34.726Z,15.73
2023-05-02T04:20:05.098Z,14.83
2023-05-02T04:22:34.399Z,14.23
2023-05-02T04:25:04.967Z,14.93
2023-05-02T04:27:33.717Z,15.27
2023-05-02T04:30:01.384Z,13.37
2023-05-02T04:32:29.065Z,14.30
2023-05-02T04:34:57.313Z,14.23
2023-05-02T04:37:24.585Z,13.97
2023-05-02T04:39:51.412Z,14.67
2023-05-02T04:42:22.682Z,14.50
2023-05-02T04:44:57.354Z,12.67
2023-05-02T04:47:24.086Z,13.60
2023-05-02T04:49:51.142Z,13.70
2023-05-02T04:52:18.614Z,14.13
2023-05-02T04:54:45.925Z,13.50
2023-05-02T04:57:12.978Z,12.80
2023-05-02T04:59:43.778Z,14.67
2023-05-02T05:02:12.715Z,13.17
2023-05-02T05:04:40.161Z,13.57
2023-05-02T05:07:07.384Z,14.60
2023-05-02T05:09:34.605Z,13.63
2023-05-02T05:12:01.972Z,15.03
2023-05-02T05:14:31.346Z,14.97
2023-05-02T05:16:58.553Z,14.30
2023-05-02T05:19:26.275Z,14.63
2023-05-02T05:21:53.529Z,13.93
2023-05-02T05:24:21.809Z,13.57
2023-05-02T05:26:50.766Z,12.90
2023-05-02T05:29:18.936Z,14.73
2023-05-02T05:31:46.104Z,15.03
2023-05-02T05:34:16.076Z,13.60
2023-05-02T05:36:44.299Z,13.27
2023-05-02T05:39:11.939Z,13.37
2023-05-02T05:41:40.724Z,14.23
2023-05-02T05:44:10.344Z,13.10
2023-05-02T05:46:37.913Z,14.07
2023-05-02T05:49:06.599Z,13.70
2023-05-02T05:51:35.445Z,13.67
2023-05-02T05:54:02.534Z,13.23
2023-05-02T05:56:31.142Z,14.00
2023-05-02T05:59:06.277Z,14.60
2023-05-02T06:01:34.116Z,12.87
2023-05-02T06:04:02.891Z,13.93
2023-05-02T06:06:31.586Z,14.93
2023-05-02T06:08:58.745Z,14.30
2023-05-02T06:11:26.089Z,12.20
2023-05-02T06:13:53.336Z,9.07
2023-05-02T06:16:20.617Z,7.53
2023-05-02T06:18:47.803Z,6.53
2023-05-02T06:21:14.842Z,6.27
2023-05-02T06:23:41.948Z,6.10
2023-05-02T06:26:10.078Z,5.67
2023-05-02T06:28:36.709Z,5.10
2023-05-02T06:31:05.807Z,5.33
2023-05-02T06:33:33.932Z,4.80
2023-05-02T06:36:02.031Z,4.73
2023-05-02T06:38:29.517Z,4.77
2023-05-02T06:40:56.618Z,4.70
2023-05-02T06:43:23.744Z,4.30
2023-05-02T06:45:54.401Z,3.60
2023-05-02T06:48:21.651Z,2.10
2023-05-02T06:50:49.063Z,2.13
2023-05-02T06:53:16.279Z,1.90
2023-05-02T06:55:44.160Z,2.07
2023-05-02T06:58:11.232Z,1.90
2023-05-02T07:00:38.978Z,1.47
2023-05-02T07:03:06.264Z,2.20
2023-05-02T07:05:33.336Z,1.90
2023-05-02T07:08:00.468Z,2.63
2023-05-02T07:10:27.594Z,2.17
2023-05-02T07:12:54.644Z,2.10
2023-05-02T07:15:21.261Z,2.40
2023-05-02T07:17:49.422Z,2.30
2023-05-02T07:20:16.546Z,2.57
2023-05-02T07:22:43.692Z,2.30
2023-05-02T07:25:10.903Z,2.60
2023-05-02T07:27:37.544Z,2.57
2023-05-02T07:30:05.358Z,2.60
2023-05-02T07:32:32.795Z,3.20
2023-05-02T07:34:59.950Z,3.00
2023-05-02T07:37:27.279Z,3.40
2023-05-02T07:39:54.385Z,2.80
2023-05-02T07:42:21.512Z,3.13
2023-05-02T07:44:48.536Z,3.47
2023-05-02T07:47:15.225Z,3.10
2023-05-02T07:49:42.263Z,2.93
2023-05-02T07:52:08.920Z,3.30
2023-05-02T07:54:36.010Z,3.50
2023-05-02T07:57:05.076Z,3.13
2023-05-02T07:59:32.173Z,3.07
2023-05-02T08:01:59.258Z,3.33
2023-05-02T08:04:26.861Z,3.57
2023-05-02T08:06:54.079Z,3.67
2023-05-02T08:09:21.217Z,2.93
2023-05-02T08:11:48.298Z,3.00
2023-05-02T08:14:16.105Z,3.43
2023-05-02T08:16:46.087Z,3.80
2023-05-02T08:19:13.618Z,3.40
2023-05-02T08:21:40.780Z,4.43
2023-05-02T08:24:07.815Z,4.10
2023-05-02T08:26:34.471Z,4.67
2023-05-02T08:29:03.094Z,3.60
2023-05-02T08:31:30.250Z,5.30
2023-05-02T08:33:57.386Z,4.30
2023-05-02T08:36:24.869Z,4.07
2023-05-02T08:38:51.932Z,4.20
2023-05-02T08:41:19.409Z,4.17
2023-05-02T08:43:47.171Z,4.10
2023-05-02T08:46:16.246Z,4.20
2023-05-02T08:48:45.193Z,3.77
2023-05-02T08:51:14.668Z,3.90
2023-05-02T08:53:42.334Z,4.57
2023-05-02T08:56:10.893Z,4.47
2023-05-02T08:58:38.921Z,4.83
2023-05-02T09:01:20.824Z,4.53
2023-05-02T09:03:48.539Z,4.53
2023-05-02T09:06:22.721Z,4.60
2023-05-02T09:08:52.488Z,4.83
2023-05-02T09:11:20.076Z,4.20
2023-05-02T09:13:51.716Z,4.67
2023-05-02T09:16:24.036Z,4.60
2023-05-02T09:18:53.007Z,4.30
2023-05-02T09:21:27.259Z,4.13
2023-05-02T09:23:55.926Z,4.60
2023-05-02T09:26:33.932Z,5.33
2023-05-02T09:29:02.358Z,5.60
2023-05-02T09:34:17.938Z,4.33
2023-05-02T09:36:46.711Z,4.57
2023-05-02T09:39:15.668Z,3.67
2023-05-02T09:41:44.062Z,3.30
2023-05-02T09:44:12.495Z,3.70
2023-05-02T09:46:43.914Z,3.63
2023-05-02T09:49:11.184Z,4.07
2023-05-02T09:51:38.064Z,3.60
2023-05-02T09:54:04.763Z,4.40
2023-05-02T09:56:31.887Z,3.73
2023-05-02T09:59:27.851Z,3.90
2023-05-02T10:01:59.776Z,4.00
2023-05-02T10:04:27.933Z,3.97
2023-05-02T10:06:55.693Z,3.53
2023-05-02T10:09:23.087Z,2.77
2023-05-02T10:11:54.589Z,2.90
2023-05-02T10:14:23.435Z,2.63
2023-05-02T10:17:12.625Z,3.20
2023-05-02T10:19:53.923Z,3.73
2023-05-02T10:22:22.149Z,3.87
2023-05-02T10:24:53.198Z,3.63
2023-05-02T10:27:20.021Z,2.67
2023-05-02T10:29:47.526Z,2.60
2023-05-02T10:32:16.955Z,2.87
2023-05-02T10:34:44.181Z,2.90
2023-05-02T10:37:12.377Z,4.13
2023-05-02T10:39:39.443Z,2.90
2023-05-02T10:42:07.793Z,3.30
2023-05-02T10:44:34.910Z,2.73
2023-05-02T10:47:02.094Z,3.17
2023-05-02T10:49:29.865Z,2.97
2023-05-02T10:51:56.999Z,2.80
2023-05-02T10:54:25.089Z,3.37
2023-05-02T10:57:03.628Z,3.37
2023-05-02T10:59:33.506Z,4.13
2023-05-02T11:02:01.384Z,3.10
2023-05-02T11:05:05.424Z,3.30
2023-05-02T11:07:36.418Z,2.90
2023-05-02T11:10:18.013Z,2.53
2023-05-02T11:12:53.013Z,2.37
2023-05-02T11:15:28.822Z,2.43
2023-05-02T11:18:08.001Z,2.13
2023-05-02T11:20:35.906Z,2.20
2023-05-02T11:23:15.190Z,1.93
2023-05-02T11:25:43.636Z,2.73
2023-05-02T11:28:50.365Z,2.37
2023-05-02T11:31:29.199Z,3.07
2023-05-02T11:33:57.504Z,2.73
2023-05-02T11:36:34.777Z,2.60
2023-05-02T11:39:03.196Z,2.87
2023-05-02T11:41:39.786Z,3.00
2023-05-02T11:44:07.208Z,2.53
2023-05-02T11:46:34.835Z,3.00
2023-05-02T11:49:02.131Z,3.27
2023-05-02T11:51:29.273Z,3.00
2023-05-02T11:53:56.751Z,3.53
2023-05-02T11:56:24.674Z,2.63
2023-05-02T11:59:02.042Z,3.27
2023-05-02T12:01:30.101Z,2.67
2023-05-02T12:04:08.023Z,3.53
2023-05-02T12:06:35.453Z,3.57
2023-05-02T12:09:10.495Z,3.60
2023-05-02T12:11:38.504Z,3.00
2023-05-02T12:14:06.668Z,3.77
2023-05-02T12:16:33.895Z,4.20
2023-05-02T12:19:01.165Z,4.67
2023-05-02T12:21:29.795Z,9.87
2023-05-02T12:23:57.072Z,3.47
2023-05-02T12:26:32.732Z,4.03
2023-05-02T12:29:00.850Z,3.20
2023-05-02T12:31:30.925Z,3.27
2023-05-02T12:33:59.970Z,8.07
2023-05-02T12:36:28.492Z,3.23
2023-05-02T12:38:59.065Z,3.60
2023-05-02T12:41:37.373Z,2.73
2023-05-02T12:44:05.489Z,3.67
2023-05-02T12:46:32.974Z,3.20
2023-05-02T12:49:11.829Z,3.20
2023-05-02T12:51:39.956Z,3.90
2023-05-02T12:54:07.284Z,3.10
2023-05-02T12:56:41.369Z,4.33
2023-05-02T12:59:08.269Z,12.10
2023-05-02T13:01:35.681Z,4.20
2023-05-02T13:04:02.862Z,3.10
2023-05-02T13:06:29.771Z,3.00
2023-05-02T13:08:56.438Z,4.37
2023-05-02T13:11:24.149Z,3.40
2023-05-02T13:13:51.262Z,5.13
2023-05-02T13:16:18.425Z,5.90
2023-05-02T13:18:47.189Z,3.50
2023-05-02T13:21:15.189Z,2.87
2023-05-02T13:23:44.073Z,5.57
2023-05-02T13:26:11.279Z,5.60
2023-05-02T13:28:38.379Z,5.00
2023-05-02T13:31:05.679Z,3.07
2023-05-02T13:33:32.307Z,2.60
2023-05-02T13:35:59.469Z,3.37
2023-05-02T13:38:26.904Z,2.63
2023-05-02T13:40:54.171Z,2.80
2023-05-02T13:43:21.321Z,3.03
2023-05-02T13:45:48.993Z,2.70
2023-05-02T13:48:16.460Z,2.60
2023-05-02T13:50:43.695Z,3.57
2023-05-02T13:53:11.221Z,4.00
2023-05-02T13:55:38.390Z,3.23
2023-05-02T13:58:05.848Z,3.30
2023-05-02T14:00:33.166Z,2.93
2023-05-02T14:03:00.357Z,2.90
2023-05-02T14:05:27.468Z,3.77
2023-05-02T14:07:54.475Z,3.40
2023-05-02T14:10:21.566Z,3.07
2023-05-02T14:12:48.825Z,3.13
2023-05-02T14:15:15.958Z,4.43
2023-05-02T14:17:43.047Z,4.63
2023-05-02T14:20:11.021Z,3.00
2023-05-02T14:22:38.099Z,2.37
2023-05-02T14:25:05.808Z,3.13
2023-05-02T14:27:32.922Z,4.90
2023-05-02T14:30:00.545Z,2.73
2023-05-02T14:32:28.050Z,2.50
2023-05-02T14:34:55.105Z,2.40
2023-05-02T14:37:22.166Z,2.80
2023-05-02T14:39:54.769Z,3.40
2023-05-02T14:42:23.247Z,3.03
2023-05-02T14:44:50.335Z,3.10
2023-05-02T14:47:17.553Z,2.80
2023-05-02T14:49:44.838Z,2.83
2023-05-02T14:52:11.876Z,3.10
2023-05-02T14:54:38.946Z,2.73
2023-05-02T14:57:06.962Z,3.53
2023-05-02T14:59:35.841Z,3.33
2023-05-02T15:02:02.970Z,3.40
2023-05-02T15:04:30.643Z,3.00
2023-05-02T15:06:58.526Z,2.63
2023-05-02T15:09:26.565Z,3.23
2023-05-02T15:11:53.717Z,3.17
2023-05-02T15:14:20.800Z,3.33
2023-05-02T15:16:47.866Z,3.43
2023-05-02T15:19:14.482Z,3.40
2023-05-02T15:21:41.613Z,3.90
2023-05-02T15:24:08.659Z,3.30
2023-05-02T15:26:35.810Z,4.00
2023-05-02T15:29:02.988Z,3.13
2023-05-02T15:31:30.241Z,3.90
2023-05-02T15:33:57.345Z,3.23
2023-05-02T15:36:28.791Z,3.17
2023-05-02T15:38:56.323Z,3.67
2023-05-02T15:41:26.947Z,3.20
2023-05-02T15:43:53.991Z,3.40
2023-05-02T15:46:21.132Z,3.90
2023-05-02T15:48:48.459Z,3.77
2023-05-02T15:51:15.702Z,4.00
2023-05-02T15:53:44.743Z,3.43
2023-05-02T15:56:12.031Z,3.80
2023-05-02T15:58:39.176Z,3.50
2023-05-02T16:01:06.305Z,3.83
2023-05-02T16:03:37.068Z,3.17
2023-05-02T16:06:06.394Z,3.07
2023-05-02T16:08:33.552Z,3.20
2023-05-02T16:11:01.732Z,3.30
2023-05-02T16:13:28.845Z,3.20
2023-05-02T16:15:56.140Z,3.03
2023-05-02T16:18:28.022Z,3.30
2023-05-02T16:20:56.945Z,3.23
2023-05-02T16:23:25.028Z,2.80
2023-05-02T16:25:57.733Z,2.97
2023-05-02T16:28:24.996Z,2.40
2023-05-02T16:30:52.459Z,2.40
2023-05-02T16:33:19.715Z,3.07
2023-05-02T16:35:46.811Z,2.93
2023-05-02T16:38:13.877Z,3.43
2023-05-02T16:40:40.963Z,2.97
2023-05-02T16:43:08.903Z,4.07
2023-05-02T16:45:35.994Z,6.20
2023-05-02T16:48:04.403Z,3.23
2023-05-02T16:50:31.705Z,2.97
2023-05-02T16:52:58.760Z,4.57
2023-05-02T16:55:25.422Z,25.40
2023-05-02T16:57:52.476Z,3.20
2023-05-02T17:00:19.700Z,2.70
2023-05-02T17:02:47.418Z,3.13
2023-05-02T17:05:14.578Z,3.07
2023-05-02T17:07:41.635Z,3.77
2023-05-02T17:10:09.339Z,3.50
2023-05-02T17:12:36.375Z,2.97
2023-05-02T17:15:04.392Z,2.73
2023-05-02T17:17:31.691Z,2.50
2023-05-02T17:19:58.764Z,2.80
2023-05-02T17:22:26.090Z,2.83
2023-05-02T17:24:54.088Z,2.67
2023-05-02T17:27:21.307Z,2.73
2023-05-02T17:29:47.932Z,2.60
2023-05-02T17:32:15.709Z,2.87
2023-05-02T17:34:45.766Z,2.60
2023-05-02T17:37:12.588Z,2.80
2023-05-02T17:39:39.654Z,2.30
2023-05-02T17:42:07.140Z,2.90
2023-05-02T17:44:37.180Z,3.03
2023-05-02T17:47:04.791Z,3.63
2023-05-02T17:49:32.058Z,2.70
2023-05-02T17:51:59.198Z,3.00
2023-05-02T17:54:26.239Z,2.80
2023-05-02T17:56:53.373Z,2.87
2023-05-02T17:59:20.594Z,2.53
2023-05-02T18:01:47.396Z,2.40
2023-05-02T18:04:15.477Z,2.20
2023-05-02T18:06:42.554Z,2.27
2023-05-02T18:09:09.702Z,2.23
2023-05-02T18:11:39.898Z,1.97
2023-05-02T18:14:07.068Z,2.10
2023-05-02T18:16:36.012Z,1.83
2023-05-02T18:19:03.197Z,2.20
2023-05-02T18:21:34.706Z,2.00
2023-05-02T18:24:01.831Z,1.80
2023-05-02T18:26:28.899Z,2.20
2023-05-02T18:28:55.963Z,2.00
2023-05-02T18:31:23.810Z,1.37
2023-05-02T18:33:51.570Z,1.70
2023-05-02T18:36:25.080Z,1.60
2023-05-02T18:38:51.923Z,1.60
2023-05-02T18:41:18.999Z,2.10
2023-05-02T18:43:46.419Z,1.73
2023-05-02T18:46:13.535Z,1.60
2023-05-02T18:48:40.632Z,1.60
2023-05-02T18:51:07.726Z,1.30
2023-05-02T18:53:35.113Z,1.60
2023-05-02T18:56:02.165Z,2.40
2023-05-02T18:58:29.238Z,2.20
2023-05-02T19:00:56.357Z,2.50
2023-05-02T19:03:23.950Z,2.50
2023-05-02T19:05:51.330Z,1.50
2023-05-02T19:08:18.477Z,2.23
2023-05-02T19:10:45.514Z,1.90
2023-05-02T19:13:12.542Z,2.37
2023-05-02T19:15:39.729Z,2.27
2023-05-02T19:18:07.108Z,1.77
2023-05-02T19:20:34.275Z,1.40
2023-05-02T19:23:18.496Z,1.80
2023-05-02T19:25:47.335Z,1.30
2023-05-02T19:28:16.698Z,1.30
2023-05-02T19:30:44.709Z,1.50
2023-05-02T19:33:12.945Z,1.63
2023-05-02T19:35:40.187Z,1.60
2023-05-02T19:38:06.856Z,1.70
2023-05-02T19:40:34.009Z,1.90
2023-05-02T19:43:01.039Z,1.93
2023-05-02T19:45:28.106Z,2.10
2023-05-02T19:47:55.453Z,2.03
2023-05-02T19:50:23.384Z,1.53
2023-05-02T19:52:50.545Z,1.47
2023-05-02T19:55:18.445Z,2.00
2023-05-02T19:57:45.538Z,1.80
2023-05-02T20:00:13.911Z,1.30
2023-05-02T20:02:41.094Z,2.07
2023-05-02T20:05:08.138Z,1.80
2023-05-02T20:07:34.792Z,1.80
2023-05-02T20:10:02.106Z,2.07
2023-05-02T20:12:29.406Z,1.50
2023-05-02T20:14:56.435Z,1.63
2023-05-02T20:17:23.043Z,1.70
2023-05-02T20:19:50.170Z,1.87
2023-05-02T20:22:18.086Z,2.17
2023-05-02T20:24:45.169Z,1.67
2023-05-02T20:27:12.243Z,1.97
2023-05-02T20:29:39.279Z,1.53
2023-05-02T20:32:06.523Z,1.83
2023-05-02T20:34:36.398Z,1.30
2023-05-02T20:37:06.806Z,1.50
2023-05-02T20:39:33.565Z,1.87
2023-05-02T20:42:01.253Z,1.37
2023-05-02T20:44:28.581Z,1.50
2023-05-02T20:46:55.812Z,1.80
2023-05-02T20:49:22.893Z,1.70
2023-05-02T20:51:50.436Z,1.73
2023-05-02T20:54:18.157Z,1.63
2023-05-02T20:56:45.378Z,1.33
2023-05-02T20:59:12.508Z,1.63
2023-05-02T21:01:39.606Z,1.63
2023-05-02T21:04:06.321Z,1.30
2023-05-02T21:06:33.602Z,2.00
2023-05-02T21:09:01.887Z,1.60
2023-05-02T21:11:28.859Z,1.87
2023-05-02T21:13:56.031Z,1.87
2023-05-02T21:16:22.781Z,1.90
2023-05-02T21:18:49.945Z,1.53
2023-05-02T21:21:17.066Z,1.90
2023-05-02T21:23:44.183Z,1.90
2023-05-02T21:26:10.856Z,1.50
2023-05-02T21:28:41.080Z,1.30
2023-05-02T21:31:08.401Z,1.53
2023-05-02T21:33:35.854Z,1.77
2023-05-02T21:36:03.085Z,2.03
2023-05-02T21:38:30.361Z,1.50
2023-05-02T21:41:04.890Z,1.50
2023-05-02T21:43:34.981Z,1.83
2023-05-02T21:46:02.082Z,1.60
2023-05-02T21:48:29.144Z,1.43
2023-05-02T21:50:56.228Z,2.17
2023-05-02T21:53:23.336Z,1.87
2023-05-02T21:55:50.682Z,1.47
2023-05-02T21:58:17.727Z,1.60
2023-05-02T22:00:45.222Z,1.43
2023-05-02T22:03:12.421Z,1.43
2023-05-02T22:05:43.068Z,1.40
2023-05-02T22:08:11.384Z,1.90
2023-05-02T22:10:39.774Z,1.27
2023-05-02T22:13:09.474Z,1.60
2023-05-02T22:15:37.599Z,1.43
2023-05-02T22:18:06.762Z,1.40
2023-05-02T22:20:34.108Z,1.37
2023-05-02T22:23:01.241Z,1.10
2023-05-02T22:25:28.882Z,1.40
2023-05-02T22:27:55.944Z,1.50
2023-05-02T22:30:23.083Z,1.13
2023-05-02T22:32:50.223Z,1.60
2023-05-02T22:35:18.010Z,1.37
2023-05-02T22:37:45.058Z,1.60
2023-05-02T22:40:12.593Z,1.60
2023-05-02T22:42:39.657Z,1.47
2023-05-02T22:45:07.767Z,1.13
2023-05-02T22:47:34.862Z,1.20
2023-05-02T22:50:05.621Z,1.30
2023-05-02T22:52:37.708Z,1.83
2023-05-02T22:55:09.089Z,1.50
2023-05-02T22:57:37.012Z,1.50
2023-05-02T23:00:05.389Z,1.60
2023-05-02T23:02:32.829Z,1.40
2023-05-02T23:05:00.003Z,1.20
2023-05-02T23:07:27.045Z,1.30
2023-05-02T23:09:53.974Z,1.50
2023-05-02T23:12:21.047Z,1.20
2023-05-02T23:14:48.091Z,1.30
2023-05-02T23:17:15.147Z,1.50
2023-05-02T23:19:42.438Z,1.20
2023-05-02T23:22:09.473Z,1.40
2023-05-02T23:24:36.564Z,1.30
2023-05-02T23:27:03.789Z,1.17
2023-05-02T23:29:30.962Z,1.20
2023-05-02T23:31:58.160Z,1.37
2023-05-02T23:34:25.980Z,1.50
2023-05-02T23:36:53.216Z,1.60
2023-05-02T23:39:20.297Z,1.70
2023-05-02T23:41:47.364Z,1.10
2023-05-02T23:44:13.974Z,1.20
2023-05-02T23:46:41.046Z,1.83
2023-05-02T23:49:08.210Z,1.40
2023-05-02T23:51:37.605Z,1.40
2023-05-02T23:54:04.347Z,1.30
2023-05-02T23:56:31.465Z,1.60
2023-05-02T23:58:58.536Z,1.30
